Terminal Aerodrome Forecast
Issued by NWS Pocatello, ID

Current Version | Previous Version | Text Only | Print | Product List | Glossary On
Versions: 1 2 3 4 5 6 7 8 9 10 11 12 13 14 15 16 17 18 19
182
FTUS45 KPIH 111728
TAFBYI
TAF
KBYI 111728Z 1118/1218 VRB05KT P6SM SCT100
     FM112200 07005KT P6SM SCT006 SCT120=

USA.gov is the U.S. government's official web portal to all federal, state and local government web resources and services.